sensor_id;sensor_type;location;lat;lon;timestamp;temperature;humidity
36654;DHT22;22650;49.350;20.898;2023-05-15T00:00:55;12.70;99.90
36654;DHT22;22650;49.350;20.898;2023-05-15T00:03:30;12.70;99.90
36654;DHT22;22650;49.350;20.898;2023-05-15T00:06:04;12.70;99.90
36654;DHT22;22650;49.350;20.898;2023-05-15T00:08:38;12.60;99.90
36654;DHT22;22650;49.350;20.898;2023-05-15T00:11:12;12.60;99.90
36654;DHT22;22650;49.350;20.898;2023-05-15T00:13:45;12.70;99.90
36654;DHT22;22650;49.350;20.898;2023-05-15T00:16:19;12.70;99.90
36654;DHT22;22650;49.350;20.898;2023-05-15T00:18:54;12.70;99.90
36654;DHT22;22650;49.350;20.898;2023-05-15T00:21:28;12.70;99.90
36654;DHT22;22650;49.350;20.898;2023-05-15T00:24:02;12.70;99.90
36654;DHT22;22650;49.350;20.898;2023-05-15T00:26:35;12.70;99.90
36654;DHT22;22650;49.350;20.898;2023-05-15T00:29:09;12.60;99.90
36654;DHT22;22650;49.350;20.898;2023-05-15T00:31:43;12.60;99.90
36654;DHT22;22650;49.350;20.898;2023-05-15T00:34:18;12.60;99.90
36654;DHT22;22650;49.350;20.898;2023-05-15T00:36:52;12.60;99.90
36654;DHT22;22650;49.350;20.898;2023-05-15T00:39:25;12.60;99.90
36654;DHT22;22650;49.350;20.898;2023-05-15T00:41:59;12.60;99.90
36654;DHT22;22650;49.350;20.898;2023-05-15T00:44:35;12.60;99.90
36654;DHT22;22650;49.350;20.898;2023-05-15T00:47:10;12.60;99.90
36654;DHT22;22650;49.350;20.898;2023-05-15T00:49:45;12.60;99.90
36654;DHT22;22650;49.350;20.898;2023-05-15T00:52:20;12.60;99.90
36654;DHT22;22650;49.350;20.898;2023-05-15T00:54:53;12.60;99.90
36654;DHT22;22650;49.350;20.898;2023-05-15T00:57:27;12.60;99.90
36654;DHT22;22650;49.350;20.898;2023-05-15T01:00:02;12.60;99.90
36654;DHT22;22650;49.350;20.898;2023-05-15T01:02:38;12.60;99.90
36654;DHT22;22650;49.350;20.898;2023-05-15T01:05:13;12.50;99.90
36654;DHT22;22650;49.350;20.898;2023-05-15T01:07:51;12.50;99.90
36654;DHT22;22650;49.350;20.898;2023-05-15T01:10:28;12.50;99.90
36654;DHT22;22650;49.350;20.898;2023-05-15T01:13:02;12.50;99.90
36654;DHT22;22650;49.350;20.898;2023-05-15T01:15:37;12.50;99.90
36654;DHT22;22650;49.350;20.898;2023-05-15T01:18:11;12.50;99.90
36654;DHT22;22650;49.350;20.898;2023-05-15T01:21:24;12.50;99.90
36654;DHT22;22650;49.350;20.898;2023-05-15T01:24:08;12.50;99.90
36654;DHT22;22650;49.350;20.898;2023-05-15T01:27:17;12.50;99.90
36654;DHT22;22650;49.350;20.898;2023-05-15T01:29:59;12.50;99.90
36654;DHT22;22650;49.350;20.898;2023-05-15T01:32:42;12.50;99.90
36654;DHT22;22650;49.350;20.898;2023-05-15T01:35:24;12.40;99.90
36654;DHT22;22650;49.350;20.898;2023-05-15T01:38:11;12.50;99.90
36654;DHT22;22650;49.350;20.898;2023-05-15T01:40:47;12.50;99.90
36654;DHT22;22650;49.350;20.898;2023-05-15T01:43:23;12.40;99.90
36654;DHT22;22650;49.350;20.898;2023-05-15T01:46:00;12.50;99.90
36654;DHT22;22650;49.350;20.898;2023-05-15T01:48:34;12.40;99.90
36654;DHT22;22650;49.350;20.898;2023-05-15T01:51:10;12.40;99.90
36654;DHT22;22650;49.350;20.898;2023-05-15T01:53:45;12.50;99.90
36654;DHT22;22650;49.350;20.898;2023-05-15T01:56:20;12.40;99.90
36654;DHT22;22650;49.350;20.898;2023-05-15T01:58:58;12.50;99.90
36654;DHT22;22650;49.350;20.898;2023-05-15T02:01:33;12.50;99.90
36654;DHT22;22650;49.350;20.898;2023-05-15T02:04:09;12.50;99.90
36654;DHT22;22650;49.350;20.898;2023-05-15T02:06:43;12.40;99.90
36654;DHT22;22650;49.350;20.898;2023-05-15T02:09:19;12.40;99.90
36654;DHT22;22650;49.350;20.898;2023-05-15T02:11:53;12.40;99.90
36654;DHT22;22650;49.350;20.898;2023-05-15T02:14:30;12.40;99.90
36654;DHT22;22650;49.350;20.898;2023-05-15T02:17:04;12.40;99.90
36654;DHT22;22650;49.350;20.898;2023-05-15T02:19:38;12.40;99.90
36654;DHT22;22650;49.350;20.898;2023-05-15T02:22:13;12.40;99.90
36654;DHT22;22650;49.350;20.898;2023-05-15T02:24:47;12.40;99.90
36654;DHT22;22650;49.350;20.898;2023-05-15T02:27:24;12.50;99.90
36654;DHT22;22650;49.350;20.898;2023-05-15T02:30:10;12.50;99.90
36654;DHT22;22650;49.350;20.898;2023-05-15T02:32:53;12.50;99.90
36654;DHT22;22650;49.350;20.898;2023-05-15T02:35:33;12.50;99.90
36654;DHT22;22650;49.350;20.898;2023-05-15T02:38:15;12.50;99.90
36654;DHT22;22650;49.350;20.898;2023-05-15T02:40:50;12.50;99.90
36654;DHT22;22650;49.350;20.898;2023-05-15T02:43:25;12.40;99.90
36654;DHT22;22650;49.350;20.898;2023-05-15T02:46:01;12.40;99.90
36654;DHT22;22650;49.350;20.898;2023-05-15T02:48:39;12.40;99.90
36654;DHT22;22650;49.350;20.898;2023-05-15T02:51:13;12.40;99.90
36654;DHT22;22650;49.350;20.898;2023-05-15T02:53:48;12.40;99.90
36654;DHT22;22650;49.350;20.898;2023-05-15T02:56:22;12.40;99.90
36654;DHT22;22650;49.350;20.898;2023-05-15T02:58:55;12.40;99.90
36654;DHT22;22650;49.350;20.898;2023-05-15T03:01:31;12.30;99.90
36654;DHT22;22650;49.350;20.898;2023-05-15T03:04:04;12.40;99.90
36654;DHT22;22650;49.350;20.898;2023-05-15T03:06:38;12.40;99.90
36654;DHT22;22650;49.350;20.898;2023-05-15T03:09:12;12.40;99.90
36654;DHT22;22650;49.350;20.898;2023-05-15T03:11:45;12.30;99.90
36654;DHT22;22650;49.350;20.898;2023-05-15T03:14:19;12.40;99.90
36654;DHT22;22650;49.350;20.898;2023-05-15T03:16:54;12.40;99.90
36654;DHT22;22650;49.350;20.898;2023-05-15T03:19:28;12.40;99.90
36654;DHT22;22650;49.350;20.898;2023-05-15T03:22:02;12.30;99.90
36654;DHT22;22650;49.350;20.898;2023-05-15T03:24:36;12.30;99.90
36654;DHT22;22650;49.350;20.898;2023-05-15T03:27:10;12.40;99.90
36654;DHT22;22650;49.350;20.898;2023-05-15T03:29:43;12.40;99.90
36654;DHT22;22650;49.350;20.898;2023-05-15T03:32:18;12.30;99.90
36654;DHT22;22650;49.350;20.898;2023-05-15T03:34:52;12.40;99.90
36654;DHT22;22650;49.350;20.898;2023-05-15T03:37:25;12.30;99.90
36654;DHT22;22650;49.350;20.898;2023-05-15T03:39:59;12.30;99.90
36654;DHT22;22650;49.350;20.898;2023-05-15T03:42:33;12.30;99.90
36654;DHT22;22650;49.350;20.898;2023-05-15T03:45:07;12.30;99.90
36654;DHT22;22650;49.350;20.898;2023-05-15T03:47:43;12.30;99.90
36654;DHT22;22650;49.350;20.898;2023-05-15T03:50:16;12.30;99.90
36654;DHT22;22650;49.350;20.898;2023-05-15T03:52:50;12.30;99.90
36654;DHT22;22650;49.350;20.898;2023-05-15T03:55:24;12.30;99.90
36654;DHT22;22650;49.350;20.898;2023-05-15T03:57:58;12.30;99.90
36654;DHT22;22650;49.350;20.898;2023-05-15T04:00:32;12.30;99.90
36654;DHT22;22650;49.350;20.898;2023-05-15T04:03:07;12.30;99.90
36654;DHT22;22650;49.350;20.898;2023-05-15T04:05:41;12.30;99.90
36654;DHT22;22650;49.350;20.898;2023-05-15T04:08:15;12.30;99.90
36654;DHT22;22650;49.350;20.898;2023-05-15T04:10:49;12.30;99.90
36654;DHT22;22650;49.350;20.898;2023-05-15T04:13:23;12.40;99.90
36654;DHT22;22650;49.350;20.898;2023-05-15T04:15:57;12.40;99.90
36654;DHT22;22650;49.350;20.898;2023-05-15T04:18:32;12.40;99.90
36654;DHT22;22650;49.350;20.898;2023-05-15T04:21:06;12.40;99.90
36654;DHT22;22650;49.350;20.898;2023-05-15T04:23:39;12.40;99.90
36654;DHT22;22650;49.350;20.898;2023-05-15T04:26:13;12.40;99.90
36654;DHT22;22650;49.350;20.898;2023-05-15T04:28:47;12.40;99.90
36654;DHT22;22650;49.350;20.898;2023-05-15T04:31:34;12.40;99.90
36654;DHT22;22650;49.350;20.898;2023-05-15T04:34:11;12.50;99.90
36654;DHT22;22650;49.350;20.898;2023-05-15T04:36:44;12.50;99.90
36654;DHT22;22650;49.350;20.898;2023-05-15T04:39:18;12.50;99.90
36654;DHT22;22650;49.350;20.898;2023-05-15T04:41:51;12.60;99.90
36654;DHT22;22650;49.350;20.898;2023-05-15T04:44:25;12.60;99.90
36654;DHT22;22650;49.350;20.898;2023-05-15T04:46:59;12.70;99.90
36654;DHT22;22650;49.350;20.898;2023-05-15T04:49:34;12.70;99.90
36654;DHT22;22650;49.350;20.898;2023-05-15T04:52:07;12.80;99.90
36654;DHT22;22650;49.350;20.898;2023-05-15T04:54:41;12.80;99.90
36654;DHT22;22650;49.350;20.898;2023-05-15T04:57:14;12.80;99.90
36654;DHT22;22650;49.350;20.898;2023-05-15T04:59:48;12.80;99.90
36654;DHT22;22650;49.350;20.898;2023-05-15T05:02:22;12.80;99.90
36654;DHT22;22650;49.350;20.898;2023-05-15T05:04:57;12.80;99.90
36654;DHT22;22650;49.350;20.898;2023-05-15T05:07:31;12.80;99.90
36654;DHT22;22650;49.350;20.898;2023-05-15T05:10:06;12.80;99.90
36654;DHT22;22650;49.350;20.898;2023-05-15T05:12:40;12.80;99.90
36654;DHT22;22650;49.350;20.898;2023-05-15T05:15:13;12.70;99.90
36654;DHT22;22650;49.350;20.898;2023-05-15T05:17:47;12.60;99.90
36654;DHT22;22650;49.350;20.898;2023-05-15T05:20:22;12.60;99.90
36654;DHT22;22650;49.350;20.898;2023-05-15T05:22:56;12.60;99.90
36654;DHT22;22650;49.350;20.898;2023-05-15T05:25:29;12.60;99.90
36654;DHT22;22650;49.350;20.898;2023-05-15T05:28:03;12.60;99.90
36654;DHT22;22650;49.350;20.898;2023-05-15T05:30:37;12.60;99.90
36654;DHT22;22650;49.350;20.898;2023-05-15T05:33:11;12.60;99.90
36654;DHT22;22650;49.350;20.898;2023-05-15T05:35:46;12.60;99.90
36654;DHT22;22650;49.350;20.898;2023-05-15T05:38:23;12.60;99.90
36654;DHT22;22650;49.350;20.898;2023-05-15T05:40:57;12.70;99.90
36654;DHT22;22650;49.350;20.898;2023-05-15T05:43:32;12.70;99.90
36654;DHT22;22650;49.350;20.898;2023-05-15T05:46:06;12.70;99.90
36654;DHT22;22650;49.350;20.898;2023-05-15T05:48:40;12.80;99.90
36654;DHT22;22650;49.350;20.898;2023-05-15T05:51:15;12.90;99.90
36654;DHT22;22650;49.350;20.898;2023-05-15T05:53:49;12.90;99.90
36654;DHT22;22650;49.350;20.898;2023-05-15T05:56:22;13.00;99.90
36654;DHT22;22650;49.350;20.898;2023-05-15T05:58:57;13.00;99.90
36654;DHT22;22650;49.350;20.898;2023-05-15T06:01:33;13.00;99.90
36654;DHT22;22650;49.350;20.898;2023-05-15T06:04:06;13.10;99.90
36654;DHT22;22650;49.350;20.898;2023-05-15T06:06:42;13.10;99.90
36654;DHT22;22650;49.350;20.898;2023-05-15T06:09:16;13.20;99.90
36654;DHT22;22650;49.350;20.898;2023-05-15T06:11:50;13.20;99.90
36654;DHT22;22650;49.350;20.898;2023-05-15T06:14:41;13.30;99.90
36654;DHT22;22650;49.350;20.898;2023-05-15T06:17:15;13.40;99.90
36654;DHT22;22650;49.350;20.898;2023-05-15T06:19:48;13.50;99.90
36654;DHT22;22650;49.350;20.898;2023-05-15T06:22:24;13.60;99.90
36654;DHT22;22650;49.350;20.898;2023-05-15T06:24:58;13.80;99.90
36654;DHT22;22650;49.350;20.898;2023-05-15T06:27:32;13.80;99.90
36654;DHT22;22650;49.350;20.898;2023-05-15T06:30:07;13.90;99.90
36654;DHT22;22650;49.350;20.898;2023-05-15T06:32:41;13.90;99.90
36654;DHT22;22650;49.350;20.898;2023-05-15T06:35:15;14.00;99.90
36654;DHT22;22650;49.350;20.898;2023-05-15T06:37:50;14.00;99.90
36654;DHT22;22650;49.350;20.898;2023-05-15T06:40:24;14.00;99.90
36654;DHT22;22650;49.350;20.898;2023-05-15T06:42:58;14.00;99.90
36654;DHT22;22650;49.350;20.898;2023-05-15T06:45:32;14.00;99.90
36654;DHT22;22650;49.350;20.898;2023-05-15T06:48:06;14.00;99.90
36654;DHT22;22650;49.350;20.898;2023-05-15T06:50:39;14.00;99.90
36654;DHT22;22650;49.350;20.898;2023-05-15T06:53:15;14.00;99.90
36654;DHT22;22650;49.350;20.898;2023-05-15T06:55:49;14.00;99.90
36654;DHT22;22650;49.350;20.898;2023-05-15T06:58:24;14.00;99.90
36654;DHT22;22650;49.350;20.898;2023-05-15T07:00:57;13.90;99.90
36654;DHT22;22650;49.350;20.898;2023-05-15T07:03:33;13.80;99.90
36654;DHT22;22650;49.350;20.898;2023-05-15T07:06:07;13.80;99.90
36654;DHT22;22650;49.350;20.898;2023-05-15T07:08:42;13.70;99.90
36654;DHT22;22650;49.350;20.898;2023-05-15T07:11:16;13.70;99.90
36654;DHT22;22650;49.350;20.898;2023-05-15T07:13:50;13.70;99.90
36654;DHT22;22650;49.350;20.898;2023-05-15T07:16:24;13.60;99.90
36654;DHT22;22650;49.350;20.898;2023-05-15T07:18:59;13.60;99.90
36654;DHT22;22650;49.350;20.898;2023-05-15T07:21:33;13.60;99.90
36654;DHT22;22650;49.350;20.898;2023-05-15T07:24:08;13.50;99.90
36654;DHT22;22650;49.350;20.898;2023-05-15T07:26:42;13.50;99.90
36654;DHT22;22650;49.350;20.898;2023-05-15T07:29:29;13.50;99.90
36654;DHT22;22650;49.350;20.898;2023-05-15T07:32:03;13.50;99.90
36654;DHT22;22650;49.350;20.898;2023-05-15T07:34:37;13.60;99.90
36654;DHT22;22650;49.350;20.898;2023-05-15T07:37:11;13.60;99.90
36654;DHT22;22650;49.350;20.898;2023-05-15T07:39:49;13.70;99.90
36654;DHT22;22650;49.350;20.898;2023-05-15T07:42:23;13.70;99.90
36654;DHT22;22650;49.350;20.898;2023-05-15T07:44:57;13.80;99.90
36654;DHT22;22650;49.350;20.898;2023-05-15T07:47:31;13.90;99.90
36654;DHT22;22650;49.350;20.898;2023-05-15T07:50:07;13.90;99.90
36654;DHT22;22650;49.350;20.898;2023-05-15T07:52:41;14.00;99.90
36654;DHT22;22650;49.350;20.898;2023-05-15T07:55:16;14.00;99.90
36654;DHT22;22650;49.350;20.898;2023-05-15T07:57:50;14.10;99.90
36654;DHT22;22650;49.350;20.898;2023-05-15T08:00:25;14.20;99.90
36654;DHT22;22650;49.350;20.898;2023-05-15T08:02:59;14.20;99.90
36654;DHT22;22650;49.350;20.898;2023-05-15T08:05:32;14.20;99.90
36654;DHT22;22650;49.350;20.898;2023-05-15T08:08:06;14.30;99.90
36654;DHT22;22650;49.350;20.898;2023-05-15T08:10:41;14.40;99.90
36654;DHT22;22650;49.350;20.898;2023-05-15T08:13:15;14.50;99.90
36654;DHT22;22650;49.350;20.898;2023-05-15T08:15:48;14.60;99.90
36654;DHT22;22650;49.350;20.898;2023-05-15T08:18:22;14.60;99.90
36654;DHT22;22650;49.350;20.898;2023-05-15T08:20:55;14.70;99.90
36654;DHT22;22650;49.350;20.898;2023-05-15T08:23:29;14.70;99.90
36654;DHT22;22650;49.350;20.898;2023-05-15T08:26:04;14.70;99.90
36654;DHT22;22650;49.350;20.898;2023-05-15T08:28:38;14.80;99.90
36654;DHT22;22650;49.350;20.898;2023-05-15T08:31:12;14.80;99.90
36654;DHT22;22650;49.350;20.898;2023-05-15T08:33:45;14.90;99.90
36654;DHT22;22650;49.350;20.898;2023-05-15T08:36:19;15.00;99.90
36654;DHT22;22650;49.350;20.898;2023-05-15T08:38:53;15.00;99.90
36654;DHT22;22650;49.350;20.898;2023-05-15T08:41:31;15.00;99.90
36654;DHT22;22650;49.350;20.898;2023-05-15T08:44:12;15.20;99.90
36654;DHT22;22650;49.350;20.898;2023-05-15T08:46:46;15.20;99.90
36654;DHT22;22650;49.350;20.898;2023-05-15T08:49:32;15.40;99.90
36654;DHT22;22650;49.350;20.898;2023-05-15T08:52:08;15.40;99.90
36654;DHT22;22650;49.350;20.898;2023-05-15T08:54:42;15.30;99.90
36654;DHT22;22650;49.350;20.898;2023-05-15T08:57:20;15.20;99.90
36654;DHT22;22650;49.350;20.898;2023-05-15T08:59:55;15.30;99.90
36654;DHT22;22650;49.350;20.898;2023-05-15T09:02:29;15.30;99.90
36654;DHT22;22650;49.350;20.898;2023-05-15T09:05:04;15.30;99.90
36654;DHT22;22650;49.350;20.898;2023-05-15T09:07:38;15.30;99.90
36654;DHT22;22650;49.350;20.898;2023-05-15T09:10:13;15.30;99.90
36654;DHT22;22650;49.350;20.898;2023-05-15T09:12:50;15.50;99.90
36654;DHT22;22650;49.350;20.898;2023-05-15T09:15:24;15.50;99.90
36654;DHT22;22650;49.350;20.898;2023-05-15T09:17:58;15.70;99.90
36654;DHT22;22650;49.350;20.898;2023-05-15T09:20:34;15.90;99.90
36654;DHT22;22650;49.350;20.898;2023-05-15T09:23:21;16.10;99.90
36654;DHT22;22650;49.350;20.898;2023-05-15T09:25:56;16.20;99.90
36654;DHT22;22650;49.350;20.898;2023-05-15T09:28:32;16.40;99.90
36654;DHT22;22650;49.350;20.898;2023-05-15T09:31:06;16.40;99.90
36654;DHT22;22650;49.350;20.898;2023-05-15T09:33:40;16.60;99.90
36654;DHT22;22650;49.350;20.898;2023-05-15T09:36:20;16.60;99.90
36654;DHT22;22650;49.350;20.898;2023-05-15T09:38:57;16.80;99.90
36654;DHT22;22650;49.350;20.898;2023-05-15T09:41:31;16.90;99.90
36654;DHT22;22650;49.350;20.898;2023-05-15T09:44:17;17.00;99.90
36654;DHT22;22650;49.350;20.898;2023-05-15T09:46:53;17.00;99.90
36654;DHT22;22650;49.350;20.898;2023-05-15T09:49:27;17.00;99.90
36654;DHT22;22650;49.350;20.898;2023-05-15T09:52:06;16.90;99.90
36654;DHT22;22650;49.350;20.898;2023-05-15T09:54:44;17.00;99.90
36654;DHT22;22650;49.350;20.898;2023-05-15T09:57:21;17.00;99.90
36654;DHT22;22650;49.350;20.898;2023-05-15T09:59:59;17.00;99.90
36654;DHT22;22650;49.350;20.898;2023-05-15T10:02:42;17.00;99.90
36654;DHT22;22650;49.350;20.898;2023-05-15T10:05:16;17.00;99.90
36654;DHT22;22650;49.350;20.898;2023-05-15T10:08:03;17.00;99.90
36654;DHT22;22650;49.350;20.898;2023-05-15T10:10:36;17.00;99.90
36654;DHT22;22650;49.350;20.898;2023-05-15T10:13:10;17.20;99.90
36654;DHT22;22650;49.350;20.898;2023-05-15T10:15:45;17.20;99.90
36654;DHT22;22650;49.350;20.898;2023-05-15T10:18:22;17.10;99.90
36654;DHT22;22650;49.350;20.898;2023-05-15T10:20:57;17.10;99.90
36654;DHT22;22650;49.350;20.898;2023-05-15T10:23:35;17.10;99.90
36654;DHT22;22650;49.350;20.898;2023-05-15T10:26:14;17.00;99.90
36654;DHT22;22650;49.350;20.898;2023-05-15T10:28:52;16.90;99.90
36654;DHT22;22650;49.350;20.898;2023-05-15T10:31:28;16.90;99.90
36654;DHT22;22650;49.350;20.898;2023-05-15T10:34:03;17.00;99.90
36654;DHT22;22650;49.350;20.898;2023-05-15T10:36:37;17.00;99.90
36654;DHT22;22650;49.350;20.898;2023-05-15T10:39:11;17.00;99.90
36654;DHT22;22650;49.350;20.898;2023-05-15T10:41:45;17.00;99.90
36654;DHT22;22650;49.350;20.898;2023-05-15T10:44:21;16.90;99.90
36654;DHT22;22650;49.350;20.898;2023-05-15T10:46:57;16.80;99.90
36654;DHT22;22650;49.350;20.898;2023-05-15T10:49:31;16.60;99.90
36654;DHT22;22650;49.350;20.898;2023-05-15T10:52:08;16.50;99.90
36654;DHT22;22650;49.350;20.898;2023-05-15T10:54:41;16.40;99.90
36654;DHT22;22650;49.350;20.898;2023-05-15T10:57:15;16.40;99.90
36654;DHT22;22650;49.350;20.898;2023-05-15T10:59:49;16.50;99.90
36654;DHT22;22650;49.350;20.898;2023-05-15T11:02:26;16.40;99.90
36654;DHT22;22650;49.350;20.898;2023-05-15T11:05:01;16.40;99.90
36654;DHT22;22650;49.350;20.898;2023-05-15T11:07:35;16.40;99.90
36654;DHT22;22650;49.350;20.898;2023-05-15T11:13:12;16.50;99.90
36654;DHT22;22650;49.350;20.898;2023-05-15T11:15:47;16.50;99.90
36654;DHT22;22650;49.350;20.898;2023-05-15T11:18:22;16.60;99.90
36654;DHT22;22650;49.350;20.898;2023-05-15T11:21:05;16.70;99.90
36654;DHT22;22650;49.350;20.898;2023-05-15T11:23:40;16.80;99.90
36654;DHT22;22650;49.350;20.898;2023-05-15T11:26:14;16.90;99.90
36654;DHT22;22650;49.350;20.898;2023-05-15T11:28:48;17.00;99.90
36654;DHT22;22650;49.350;20.898;2023-05-15T11:31:28;17.30;99.90
36654;DHT22;22650;49.350;20.898;2023-05-15T11:34:05;17.60;99.90
36654;DHT22;22650;49.350;20.898;2023-05-15T11:36:39;17.90;99.90
36654;DHT22;22650;49.350;20.898;2023-05-15T11:39:15;18.10;99.90
36654;DHT22;22650;49.350;20.898;2023-05-15T11:41:48;18.00;99.90
36654;DHT22;22650;49.350;20.898;2023-05-15T11:44:23;17.90;99.90
36654;DHT22;22650;49.350;20.898;2023-05-15T11:46:56;18.00;99.90
36654;DHT22;22650;49.350;20.898;2023-05-15T11:49:32;18.10;99.90
36654;DHT22;22650;49.350;20.898;2023-05-15T11:52:06;18.00;99.90
36654;DHT22;22650;49.350;20.898;2023-05-15T11:54:40;18.10;99.90
36654;DHT22;22650;49.350;20.898;2023-05-15T11:57:14;18.10;99.90
36654;DHT22;22650;49.350;20.898;2023-05-15T11:59:48;17.90;99.90
36654;DHT22;22650;49.350;20.898;2023-05-15T12:02:26;17.80;99.90
36654;DHT22;22650;49.350;20.898;2023-05-15T12:05:05;17.60;99.90
36654;DHT22;22650;49.350;20.898;2023-05-15T12:07:43;17.40;99.90
36654;DHT22;22650;49.350;20.898;2023-05-15T12:10:16;17.20;99.90
36654;DHT22;22650;49.350;20.898;2023-05-15T12:12:50;17.10;99.90
36654;DHT22;22650;49.350;20.898;2023-05-15T12:15:24;17.00;99.90
36654;DHT22;22650;49.350;20.898;2023-05-15T12:18:02;17.00;99.90
36654;DHT22;22650;49.350;20.898;2023-05-15T12:20:39;16.90;99.90
36654;DHT22;22650;49.350;20.898;2023-05-15T12:23:16;16.80;99.90
36654;DHT22;22650;49.350;20.898;2023-05-15T12:25:52;16.80;99.90
36654;DHT22;22650;49.350;20.898;2023-05-15T12:28:32;16.80;99.90
36654;DHT22;22650;49.350;20.898;2023-05-15T12:31:09;16.70;99.90
36654;DHT22;22650;49.350;20.898;2023-05-15T12:33:44;16.70;99.90
36654;DHT22;22650;49.350;20.898;2023-05-15T12:36:20;16.60;99.90
36654;DHT22;22650;49.350;20.898;2023-05-15T12:38:54;16.70;99.90
36654;DHT22;22650;49.350;20.898;2023-05-15T12:41:28;16.80;99.90
36654;DHT22;22650;49.350;20.898;2023-05-15T12:44:02;16.80;99.90
36654;DHT22;22650;49.350;20.898;2023-05-15T12:46:37;16.80;99.90
36654;DHT22;22650;49.350;20.898;2023-05-15T12:49:11;16.80;99.90
36654;DHT22;22650;49.350;20.898;2023-05-15T12:51:46;16.80;99.90
36654;DHT22;22650;49.350;20.898;2023-05-15T12:54:19;16.80;99.90
36654;DHT22;22650;49.350;20.898;2023-05-15T12:56:54;16.80;99.90
36654;DHT22;22650;49.350;20.898;2023-05-15T12:59:29;16.90;99.90
36654;DHT22;22650;49.350;20.898;2023-05-15T13:02:04;16.90;99.90
36654;DHT22;22650;49.350;20.898;2023-05-15T13:04:38;17.00;99.90
36654;DHT22;22650;49.350;20.898;2023-05-15T13:07:15;16.90;99.90
36654;DHT22;22650;49.350;20.898;2023-05-15T13:10:01;17.00;99.90
36654;DHT22;22650;49.350;20.898;2023-05-15T13:12:36;17.10;99.90
36654;DHT22;22650;49.350;20.898;2023-05-15T13:15:30;17.20;99.90
36654;DHT22;22650;49.350;20.898;2023-05-15T13:18:07;17.20;99.90
36654;DHT22;22650;49.350;20.898;2023-05-15T13:20:43;17.10;99.90
36654;DHT22;22650;49.350;20.898;2023-05-15T13:23:19;17.10;99.90
36654;DHT22;22650;49.350;20.898;2023-05-15T13:25:55;17.20;99.90
36654;DHT22;22650;49.350;20.898;2023-05-15T13:28:29;17.20;99.90
36654;DHT22;22650;49.350;20.898;2023-05-15T13:31:02;17.30;99.90
36654;DHT22;22650;49.350;20.898;2023-05-15T13:33:36;17.40;99.90
36654;DHT22;22650;49.350;20.898;2023-05-15T13:36:10;17.40;99.90
36654;DHT22;22650;49.350;20.898;2023-05-15T13:38:47;17.40;99.90
36654;DHT22;22650;49.350;20.898;2023-05-15T13:41:21;17.40;99.90
36654;DHT22;22650;49.350;20.898;2023-05-15T13:43:54;17.40;99.90
36654;DHT22;22650;49.350;20.898;2023-05-15T13:46:28;17.40;99.90
36654;DHT22;22650;49.350;20.898;2023-05-15T13:49:02;17.50;99.90
36654;DHT22;22650;49.350;20.898;2023-05-15T13:51:36;17.60;99.90
36654;DHT22;22650;49.350;20.898;2023-05-15T13:54:11;17.70;99.90
36654;DHT22;22650;49.350;20.898;2023-05-15T13:56:47;17.80;99.90
36654;DHT22;22650;49.350;20.898;2023-05-15T13:59:20;17.80;99.90
36654;DHT22;22650;49.350;20.898;2023-05-15T14:01:54;17.80;99.90
36654;DHT22;22650;49.350;20.898;2023-05-15T14:04:28;17.70;99.90
36654;DHT22;22650;49.350;20.898;2023-05-15T14:07:01;17.80;99.90
36654;DHT22;22650;49.350;20.898;2023-05-15T14:09:37;17.80;99.90
36654;DHT22;22650;49.350;20.898;2023-05-15T14:12:11;18.00;99.90
36654;DHT22;22650;49.350;20.898;2023-05-15T14:14:45;18.00;99.90
36654;DHT22;22650;49.350;20.898;2023-05-15T14:17:20;17.90;99.90
36654;DHT22;22650;49.350;20.898;2023-05-15T14:19:54;17.80;99.90
36654;DHT22;22650;49.350;20.898;2023-05-15T14:22:28;17.70;99.90
36654;DHT22;22650;49.350;20.898;2023-05-15T14:25:03;17.80;99.90
36654;DHT22;22650;49.350;20.898;2023-05-15T14:27:38;17.60;99.90
36654;DHT22;22650;49.350;20.898;2023-05-15T14:30:12;17.70;99.90
36654;DHT22;22650;49.350;20.898;2023-05-15T14:32:46;17.60;99.90
36654;DHT22;22650;49.350;20.898;2023-05-15T14:35:20;17.60;99.90
36654;DHT22;22650;49.350;20.898;2023-05-15T14:37:54;17.60;99.90
36654;DHT22;22650;49.350;20.898;2023-05-15T14:40:29;17.70;99.90
36654;DHT22;22650;49.350;20.898;2023-05-15T14:43:02;17.70;99.90
36654;DHT22;22650;49.350;20.898;2023-05-15T14:45:36;17.70;99.90
36654;DHT22;22650;49.350;20.898;2023-05-15T14:48:09;17.70;99.90
36654;DHT22;22650;49.350;20.898;2023-05-15T14:50:44;17.70;99.90
36654;DHT22;22650;49.350;20.898;2023-05-15T14:53:17;17.70;99.90
36654;DHT22;22650;49.350;20.898;2023-05-15T14:55:53;17.80;99.90
36654;DHT22;22650;49.350;20.898;2023-05-15T14:58:27;17.80;99.90
36654;DHT22;22650;49.350;20.898;2023-05-15T15:01:02;17.90;99.90
36654;DHT22;22650;49.350;20.898;2023-05-15T15:03:35;17.90;99.90
36654;DHT22;22650;49.350;20.898;2023-05-15T15:06:09;17.80;99.90
36654;DHT22;22650;49.350;20.898;2023-05-15T15:08:43;17.90;99.90
36654;DHT22;22650;49.350;20.898;2023-05-15T15:11:18;18.00;99.90
36654;DHT22;22650;49.350;20.898;2023-05-15T15:13:52;18.20;99.90
36654;DHT22;22650;49.350;20.898;2023-05-15T15:16:26;18.40;99.90
36654;DHT22;22650;49.350;20.898;2023-05-15T15:18:59;18.50;99.90
36654;DHT22;22650;49.350;20.898;2023-05-15T15:21:33;18.70;99.90
36654;DHT22;22650;49.350;20.898;2023-05-15T15:24:08;18.60;99.90
36654;DHT22;22650;49.350;20.898;2023-05-15T15:26:43;18.60;99.90
36654;DHT22;22650;49.350;20.898;2023-05-15T15:29:16;18.60;99.90
36654;DHT22;22650;49.350;20.898;2023-05-15T15:31:50;18.60;99.90
36654;DHT22;22650;49.350;20.898;2023-05-15T15:34:24;18.40;99.90
36654;DHT22;22650;49.350;20.898;2023-05-15T15:36:58;18.40;99.90
36654;DHT22;22650;49.350;20.898;2023-05-15T15:39:32;18.40;99.90
36654;DHT22;22650;49.350;20.898;2023-05-15T15:42:07;18.30;99.90
36654;DHT22;22650;49.350;20.898;2023-05-15T15:44:41;18.20;99.90
36654;DHT22;22650;49.350;20.898;2023-05-15T15:47:14;18.30;99.90
36654;DHT22;22650;49.350;20.898;2023-05-15T15:49:49;18.20;99.90
36654;DHT22;22650;49.350;20.898;2023-05-15T15:52:23;18.20;99.90
36654;DHT22;22650;49.350;20.898;2023-05-15T15:54:57;18.10;99.90
36654;DHT22;22650;49.350;20.898;2023-05-15T15:57:32;18.10;99.90
36654;DHT22;22650;49.350;20.898;2023-05-15T16:00:07;18.00;99.90
36654;DHT22;22650;49.350;20.898;2023-05-15T16:02:41;18.00;99.90
36654;DHT22;22650;49.350;20.898;2023-05-15T16:05:14;17.90;99.90
36654;DHT22;22650;49.350;20.898;2023-05-15T16:07:48;17.90;99.90